createdAt,value
2017-11-18T00:00:00.637Z,67.85
2017-11-18T00:02:28.445Z,75.22
2017-11-18T00:04:56.328Z,78.28
2017-11-18T00:07:24.076Z,76.00
2017-11-18T00:09:51.897Z,80.75
2017-11-18T00:12:19.664Z,83.07
2017-11-18T00:14:47.424Z,80.95
2017-11-18T00:17:15.244Z,76.78
2017-11-18T00:19:43.038Z,72.47
2017-11-18T00:22:10.795Z,78.62
2017-11-18T00:24:38.599Z,85.82
2017-11-18T00:27:07.152Z,89.28
2017-11-18T00:29:34.906Z,81.57
2017-11-18T00:32:02.704Z,80.60
2017-11-18T00:34:31.267Z,87.62
2017-11-18T00:36:59.015Z,86.20
2017-11-18T00:39:26.870Z,74.28
2017-11-18T00:41:54.620Z,144.37
2017-11-18T00:44:22.371Z,103.28
2017-11-18T00:46:50.176Z,107.50
2017-11-18T00:49:17.933Z,81.60
2017-11-18T00:51:45.675Z,91.15
2017-11-18T00:54:13.481Z,75.15
2017-11-18T00:56:41.997Z,82.82
2017-11-18T00:59:09.772Z,99.00
2017-11-18T01:01:37.591Z,75.80
2017-11-18T01:04:05.350Z,80.00
2017-11-18T01:06:33.861Z,78.07
2017-11-18T01:09:01.664Z,91.00
2017-11-18T01:11:29.416Z,85.60
2017-11-18T01:13:57.163Z,89.50
2017-11-18T01:16:25.140Z,80.35
2017-11-18T01:18:53.009Z,92.12
2017-11-18T01:21:20.872Z,65.43
2017-11-18T01:23:48.732Z,70.78
2017-11-18T01:26:16.594Z,60.47
2017-11-18T01:28:44.460Z,67.43
2017-11-18T01:31:12.275Z,59.80
2017-11-18T01:33:40.026Z,53.53
2017-11-18T01:36:08.666Z,52.55
2017-11-18T01:38:36.467Z,60.40
2017-11-18T01:41:04.999Z,60.97
2017-11-18T01:43:32.753Z,92.03
2017-11-18T01:46:00.555Z,71.97
2017-11-18T01:48:28.395Z,65.12
2017-11-18T01:50:56.259Z,60.80
2017-11-18T01:53:24.089Z,58.70
2017-11-18T01:55:51.836Z,69.57
2017-11-18T01:58:19.676Z,59.10
2017-11-18T02:00:48.329Z,56.83
2017-11-18T02:03:16.193Z,66.25
2017-11-18T02:05:43.982Z,54.20
2017-11-18T02:08:12.677Z,61.10
2017-11-18T02:10:40.502Z,68.20
2017-11-18T02:13:08.366Z,51.85
2017-11-18T02:15:36.187Z,55.63
2017-11-18T02:18:03.927Z,57.00
2017-11-18T02:20:32.452Z,46.42
2017-11-18T02:23:00.279Z,56.88
2017-11-18T02:25:28.042Z,53.38
2017-11-18T02:27:55.821Z,48.35
2017-11-18T02:30:23.696Z,61.58
2017-11-18T02:32:51.454Z,54.88
2017-11-18T02:35:19.231Z,52.22
2017-11-18T02:37:47.064Z,54.13
2017-11-18T02:40:14.830Z,53.60
2017-11-18T02:42:42.593Z,48.20
2017-11-18T02:45:10.413Z,54.75
2017-11-18T02:47:38.183Z,50.47
2017-11-18T02:50:06.707Z,50.33
2017-11-18T02:52:34.911Z,49.55
2017-11-18T02:55:02.671Z,51.20
2017-11-18T02:57:30.429Z,46.53
2017-11-18T02:59:59.200Z,52.58
2017-11-18T03:02:27.079Z,69.57
2017-11-18T03:04:54.824Z,60.28
2017-11-18T03:07:22.652Z,48.90
2017-11-18T03:09:50.405Z,56.33
2017-11-18T03:12:18.924Z,55.35
2017-11-18T03:14:46.747Z,53.85
2017-11-18T03:17:15.278Z,52.65
2017-11-18T03:19:43.026Z,54.28
2017-11-18T03:22:10.831Z,45.20
2017-11-18T03:24:38.677Z,53.22
2017-11-18T03:27:06.540Z,49.40
2017-11-18T03:29:34.365Z,56.25
2017-11-18T03:32:02.125Z,49.20
2017-11-18T03:34:29.927Z,48.35
2017-11-18T03:36:57.728Z,47.58
2017-11-18T03:39:26.270Z,55.00
2017-11-18T03:41:54.133Z,55.22
2017-11-18T03:44:21.996Z,49.40
2017-11-18T03:46:49.765Z,48.53
2017-11-18T03:49:17.632Z,47.30
2017-11-18T03:51:45.487Z,49.70
2017-11-18T03:54:13.238Z,47.38
2017-11-18T03:56:41.120Z,48.00
2017-11-18T03:59:08.948Z,40.35
2017-11-18T04:01:36.728Z,42.45
2017-11-18T04:04:04.603Z,46.67
2017-11-18T04:06:32.467Z,44.63
2017-11-18T04:09:00.229Z,38.20
2017-11-18T04:11:27.976Z,40.35
2017-11-18T04:13:55.788Z,43.38
2017-11-18T04:16:24.331Z,42.17
2017-11-18T04:18:52.085Z,35.90
2017-11-18T04:21:19.897Z,41.30
2017-11-18T04:23:48.422Z,44.25
2017-11-18T04:26:17.016Z,40.63
2017-11-18T04:28:44.880Z,36.80
2017-11-18T04:31:12.628Z,43.67
2017-11-18T04:33:40.507Z,46.45
2017-11-18T04:36:08.321Z,42.75
2017-11-18T04:38:36.131Z,38.70
2017-11-18T04:41:03.895Z,39.47
2017-11-18T04:43:31.757Z,40.38
2017-11-18T04:45:59.503Z,44.78
2017-11-18T04:48:27.271Z,42.70
2017-11-18T04:50:55.081Z,42.53
2017-11-18T04:53:22.838Z,57.45
2017-11-18T04:55:51.486Z,37.88
2017-11-18T04:58:19.295Z,41.30
2017-11-18T05:00:47.113Z,47.75
2017-11-18T05:03:14.892Z,41.85
2017-11-18T05:05:42.733Z,47.80
2017-11-18T05:08:10.492Z,48.53
2017-11-18T05:10:38.247Z,42.00
2017-11-18T05:13:06.065Z,42.80
2017-11-18T05:15:34.586Z,52.17
2017-11-18T05:18:02.336Z,39.45
2017-11-18T05:20:30.172Z,44.88
2017-11-18T05:22:57.991Z,44.40
2017-11-18T05:25:25.755Z,47.85
2017-11-18T05:27:53.563Z,41.95
2017-11-18T05:30:21.328Z,39.55
2017-11-18T05:32:49.085Z,33.42
2017-11-18T05:35:17.005Z,37.95
2017-11-18T05:37:44.868Z,42.92
2017-11-18T05:40:12.732Z,44.47
2017-11-18T05:42:40.547Z,51.60
2017-11-18T05:45:08.357Z,40.83
2017-11-18T05:47:36.195Z,37.90
2017-11-18T05:50:04.007Z,40.80
2017-11-18T05:52:31.747Z,39.70
2017-11-18T05:54:59.521Z,44.67
2017-11-18T05:57:27.324Z,45.58
2017-11-18T05:59:55.091Z,40.58
2017-11-18T06:02:22.840Z,42.62
2017-11-18T06:04:50.763Z,39.53
2017-11-18T06:07:18.621Z,36.58
2017-11-18T06:09:46.489Z,37.95
2017-11-18T06:12:14.350Z,38.15
2017-11-18T06:14:42.103Z,46.05
2017-11-18T06:17:10.620Z,50.03
2017-11-18T06:19:39.274Z,38.67
2017-11-18T06:22:07.041Z,42.78
2017-11-18T06:24:34.796Z,38.92
2017-11-18T06:27:02.604Z,51.97
2017-11-18T06:29:31.166Z,43.08
2017-11-18T06:31:59.695Z,39.17
2017-11-18T06:34:27.504Z,36.55
2017-11-18T06:36:55.258Z,38.22
2017-11-18T06:39:23.009Z,39.78
2017-11-18T06:41:51.483Z,36.22
2017-11-18T06:44:19.348Z,40.20
2017-11-18T06:46:47.213Z,36.63
2017-11-18T06:49:15.076Z,36.92
2017-11-18T06:51:42.821Z,33.15
2017-11-18T06:54:10.572Z,35.25
2017-11-18T06:56:38.380Z,27.83
2017-11-18T06:59:06.147Z,31.00
2017-11-18T07:01:33.896Z,36.95
2017-11-18T07:04:01.698Z,36.53
2017-11-18T07:06:29.452Z,37.22
2017-11-18T07:08:57.270Z,41.65
2017-11-18T07:11:25.095Z,45.45
2017-11-18T07:13:52.850Z,39.15
2017-11-18T07:16:20.604Z,38.80
2017-11-18T07:18:48.522Z,38.58
2017-11-18T07:21:16.271Z,39.58
2017-11-18T07:23:44.147Z,40.15
2017-11-18T07:26:11.956Z,48.42
2017-11-18T07:28:39.704Z,32.55
2017-11-18T07:31:08.233Z,31.90
2017-11-18T07:33:36.532Z,30.48
2017-11-18T07:36:04.295Z,25.88
2017-11-18T07:38:32.151Z,20.50
2017-11-18T07:41:00.625Z,22.75
2017-11-18T07:43:28.379Z,21.98
2017-11-18T07:45:56.164Z,26.62
2017-11-18T07:48:26.940Z,23.75
2017-11-18T07:50:54.951Z,29.90
2017-11-18T07:53:22.736Z,27.87
2017-11-18T07:55:50.544Z,23.95
2017-11-18T07:58:18.481Z,27.73
2017-11-18T08:00:46.992Z,29.67
2017-11-18T08:03:14.791Z,31.10
2017-11-18T08:05:42.536Z,30.65
2017-11-18T08:08:10.871Z,24.98
2017-11-18T08:10:38.676Z,29.73
2017-11-18T08:13:06.424Z,34.42
2017-11-18T08:15:34.179Z,36.10
2017-11-18T08:18:02.023Z,43.00
2017-11-18T08:20:29.836Z,60.17
2017-11-18T08:22:57.587Z,29.58
2017-11-18T08:25:25.399Z,30.00
2017-11-18T08:27:53.924Z,28.58
2017-11-18T08:30:21.677Z,27.95
2017-11-18T08:32:49.484Z,24.65
2017-11-18T08:35:18.010Z,35.83
2017-11-18T08:37:45.752Z,25.80
2017-11-18T08:40:13.561Z,23.92
2017-11-18T08:42:41.318Z,22.70
2017-11-18T08:45:09.085Z,25.37
2017-11-18T08:47:36.951Z,28.00
2017-11-18T08:50:04.814Z,27.55
2017-11-18T08:52:32.567Z,22.70
2017-11-18T08:55:00.417Z,30.55
2017-11-18T08:57:28.189Z,26.80
2017-11-18T08:59:55.948Z,26.73
2017-11-18T09:02:23.753Z,23.23
2017-11-18T09:04:52.273Z,26.67
2017-11-18T09:07:20.048Z,23.35
2017-11-18T09:09:48.676Z,22.20
2017-11-18T09:12:17.218Z,29.02
2017-11-18T09:14:45.769Z,22.17
2017-11-18T09:17:13.595Z,28.05
2017-11-18T09:19:42.141Z,23.98
2017-11-18T09:22:09.930Z,31.05
2017-11-18T09:24:37.757Z,27.60
2017-11-18T09:27:05.537Z,34.28
2017-11-18T09:29:33.319Z,39.65
2017-11-18T09:32:02.026Z,69.28
2017-11-18T09:34:29.801Z,51.95
2017-11-18T09:36:57.573Z,37.05
2017-11-18T09:39:25.417Z,31.92
2017-11-18T09:41:53.236Z,29.83
2017-11-18T09:44:21.010Z,36.08
2017-11-18T09:46:48.841Z,37.42
2017-11-18T09:49:16.601Z,40.75
2017-11-18T09:51:44.368Z,36.88
2017-11-18T09:54:12.173Z,30.62
2017-11-18T09:56:40.805Z,31.85
2017-11-18T09:59:08.563Z,26.35
2017-11-18T10:01:36.387Z,25.10
2017-11-18T10:04:05.324Z,37.60
2017-11-18T10:06:33.104Z,27.77
2017-11-18T10:09:00.920Z,34.78
2017-11-18T10:11:28.700Z,29.60
2017-11-18T10:13:56.465Z,42.67
2017-11-18T10:16:24.267Z,39.15
2017-11-18T10:18:52.022Z,30.08
2017-11-18T10:21:19.785Z,28.87
2017-11-18T10:23:47.594Z,30.42
2017-11-18T10:26:15.339Z,35.75
2017-11-18T10:28:43.879Z,25.95
2017-11-18T10:31:11.696Z,20.45
2017-11-18T10:33:39.460Z,35.53
2017-11-18T10:36:07.218Z,27.55
2017-11-18T10:38:35.041Z,25.50
2017-11-18T10:41:02.801Z,28.50
2017-11-18T10:43:30.548Z,29.52
2017-11-18T10:45:58.414Z,24.58
2017-11-18T10:48:26.166Z,21.40
2017-11-18T10:50:53.919Z,16.45
2017-11-18T10:53:21.754Z,20.45
2017-11-18T10:55:49.525Z,21.67
2017-11-18T10:58:17.284Z,20.02
2017-11-18T11:00:45.096Z,16.15
2017-11-18T11:03:12.851Z,16.25
2017-11-18T11:05:40.620Z,17.90
2017-11-18T11:08:08.449Z,19.58
2017-11-18T11:10:36.221Z,15.85
2017-11-18T11:13:03.976Z,17.15
2017-11-18T11:15:31.787Z,17.08
2017-11-18T11:18:00.325Z,25.12
2017-11-18T11:20:28.091Z,27.30
2017-11-18T11:22:55.925Z,21.70
2017-11-18T11:25:23.680Z,20.35
2017-11-18T11:27:51.451Z,17.30
2017-11-18T11:30:19.536Z,23.25
2017-11-18T11:32:47.373Z,18.90
2017-11-18T11:35:15.144Z,14.00
2017-11-18T11:37:42.958Z,22.95
2017-11-18T11:40:10.733Z,23.20
2017-11-18T11:42:39.250Z,13.15
2017-11-18T11:45:07.068Z,16.27
2017-11-18T11:47:35.369Z,13.57
2017-11-18T11:50:03.149Z,14.40
2017-11-18T11:52:30.964Z,20.50
2017-11-18T11:54:58.751Z,19.87
2017-11-18T11:57:27.292Z,15.55
2017-11-18T11:59:55.215Z,18.85
2017-11-18T12:02:22.986Z,22.00
2017-11-18T12:04:50.752Z,15.43
2017-11-18T12:07:18.641Z,17.52
2017-11-18T12:09:46.547Z,15.73
2017-11-18T12:12:15.097Z,20.98
2017-11-18T12:14:42.926Z,16.52
2017-11-18T12:17:10.704Z,21.20
2017-11-18T12:19:38.478Z,25.70
2017-11-18T12:22:06.319Z,20.67
2017-11-18T12:24:34.102Z,20.88
2017-11-18T12:27:01.869Z,19.98
2017-11-18T12:29:29.721Z,19.70
2017-11-18T12:31:57.899Z,22.98
2017-11-18T12:34:25.653Z,17.25
2017-11-18T12:36:53.470Z,15.35
2017-11-18T12:39:21.229Z,16.58
2017-11-18T12:41:48.997Z,17.27
2017-11-18T12:44:16.812Z,23.52
2017-11-18T12:46:44.590Z,22.80
2017-11-18T12:49:13.124Z,25.35
2017-11-18T12:51:40.942Z,20.30
2017-11-18T12:54:09.485Z,20.20
2017-11-18T12:56:37.234Z,25.05
2017-11-18T12:59:05.317Z,24.37
2017-11-18T13:01:33.102Z,18.50
2017-11-18T13:04:00.865Z,21.25
2017-11-18T13:06:28.700Z,18.65
2017-11-18T13:08:56.485Z,15.98
2017-11-18T13:11:24.237Z,17.80
2017-11-18T13:13:52.061Z,27.67
2017-11-18T13:16:19.816Z,19.42
2017-11-18T13:18:47.572Z,23.73
2017-11-18T13:21:15.389Z,25.52
2017-11-18T13:23:43.145Z,20.23
2017-11-18T13:26:10.918Z,27.15
2017-11-18T13:28:38.754Z,18.42
2017-11-18T13:31:06.508Z,25.02
2017-11-18T13:33:34.314Z,22.20
2017-11-18T13:36:02.132Z,21.00
2017-11-18T13:38:29.899Z,16.75
2017-11-18T13:40:57.657Z,18.65
2017-11-18T13:43:25.484Z,23.08
2017-11-18T13:45:54.054Z,21.37
2017-11-18T13:48:22.585Z,23.75
2017-11-18T13:50:50.397Z,17.02
2017-11-18T13:53:18.922Z,20.80
2017-11-18T13:55:46.679Z,19.05
2017-11-18T13:58:14.500Z,23.67
2017-11-18T14:00:43.037Z,20.25
2017-11-18T14:03:10.799Z,25.40
2017-11-18T14:05:38.623Z,20.27
2017-11-18T14:08:06.411Z,20.95
2017-11-18T14:10:34.166Z,20.00
2017-11-18T14:13:01.998Z,23.90
2017-11-18T14:15:29.764Z,20.48
2017-11-18T14:17:58.291Z,18.10
2017-11-18T14:20:26.118Z,22.15
2017-11-18T14:22:53.885Z,27.85
2017-11-18T14:25:21.644Z,23.38
2017-11-18T14:27:49.496Z,19.73
2017-11-18T14:30:17.269Z,22.50
2017-11-18T14:32:45.033Z,28.15
2017-11-18T14:35:13.050Z,20.77
2017-11-18T14:37:40.827Z,21.83
2017-11-18T14:40:08.646Z,22.77
2017-11-18T14:42:36.490Z,20.52
2017-11-18T14:45:04.258Z,21.25
2017-11-18T14:47:32.017Z,19.05
2017-11-18T14:49:59.871Z,26.83
2017-11-18T14:52:27.621Z,20.15
2017-11-18T14:54:56.158Z,19.75
2017-11-18T14:57:24.771Z,18.87
2017-11-18T14:59:53.327Z,21.45
2017-11-18T15:02:21.107Z,21.70
2017-11-18T15:04:48.950Z,20.58
2017-11-18T15:07:16.754Z,24.75
2017-11-18T15:09:45.308Z,28.77
2017-11-18T15:12:13.160Z,19.25
2017-11-18T15:14:42.551Z,19.02
2017-11-18T15:17:16.121Z,21.75
2017-11-18T15:19:49.522Z,23.62
2017-11-18T15:22:35.095Z,24.27
2017-11-18T15:25:08.416Z,22.10
2017-11-18T15:27:42.010Z,27.98
2017-11-18T15:30:25.477Z,26.98
2017-11-18T15:32:59.913Z,26.27
2017-11-18T15:35:30.033Z,28.25
2017-11-18T15:38:13.428Z,24.25
2017-11-18T15:40:42.248Z,22.60
2017-11-18T15:43:10.847Z,26.33
2017-11-18T15:45:48.724Z,23.17
2017-11-18T16:02:06.314Z,21.08
2017-11-18T16:04:37.389Z,20.95
2017-11-18T16:07:23.832Z,20.02
2017-11-18T16:09:51.750Z,23.85
2017-11-18T16:12:19.629Z,25.27
2017-11-18T16:14:47.464Z,34.63
2017-11-18T16:17:15.354Z,32.78
2017-11-18T16:19:43.131Z,29.48
2017-11-18T16:22:11.832Z,27.70
2017-11-18T16:24:39.847Z,28.77
2017-11-18T16:27:08.548Z,27.80
2017-11-18T16:29:36.434Z,28.50
2017-11-18T16:32:04.392Z,23.98
2017-11-18T16:34:32.166Z,26.90
2017-11-18T16:37:00.207Z,17.20
2017-11-18T16:39:28.138Z,20.10
2017-11-18T16:41:56.682Z,16.80
2017-11-18T16:44:24.563Z,22.35
2017-11-18T16:46:53.117Z,23.48
2017-11-18T16:49:20.911Z,31.00
2017-11-18T16:51:49.689Z,22.23
2017-11-18T16:54:18.237Z,24.63
2017-11-18T16:56:46.752Z,22.75
2017-11-18T16:59:15.360Z,21.92
2017-11-18T17:01:43.138Z,23.33
2017-11-18T17:04:10.938Z,18.90
2017-11-18T17:06:38.784Z,21.10
2017-11-18T17:09:06.601Z,20.20
2017-11-18T17:11:34.401Z,26.20
2017-11-18T17:14:02.241Z,23.80
2017-11-18T17:16:30.055Z,27.65
2017-11-18T17:18:58.666Z,20.55
2017-11-18T17:21:27.263Z,23.77
2017-11-18T17:23:55.036Z,28.10
2017-11-18T17:26:22.799Z,28.55
2017-11-18T17:28:50.631Z,26.05
2017-11-18T17:31:19.169Z,20.70
2017-11-18T17:33:46.953Z,21.40
2017-11-18T17:36:15.023Z,20.52
2017-11-18T17:38:42.799Z,21.37
2017-11-18T17:41:13.320Z,22.50
2017-11-18T17:43:41.156Z,20.90
2017-11-18T17:46:08.956Z,26.98
2017-11-18T17:48:37.497Z,24.05
2017-11-18T17:51:05.334Z,27.60
2017-11-18T17:53:33.130Z,31.00
2017-11-18T17:56:00.937Z,23.55
2017-11-18T17:58:28.975Z,29.58
2017-11-18T18:00:57.551Z,29.65
2017-11-18T18:03:25.329Z,26.80
2017-11-18T18:05:53.934Z,31.67
2017-11-18T18:08:21.961Z,25.83
2017-11-18T18:10:49.757Z,27.30
2017-11-18T18:13:17.614Z,26.42
2017-11-18T18:15:46.164Z,23.75
2017-11-18T18:18:14.422Z,21.30
2017-11-18T18:20:42.282Z,25.42
2017-11-18T18:23:10.097Z,23.85
2017-11-18T18:25:37.956Z,20.58
2017-11-18T18:28:05.846Z,22.90
2017-11-18T18:30:33.626Z,22.00
2017-11-18T18:33:01.401Z,27.35
2017-11-18T18:35:29.733Z,30.77
2017-11-18T18:37:58.024Z,29.58
2017-11-18T18:40:26.761Z,20.80
2017-11-18T18:42:55.345Z,29.98
2017-11-18T18:45:23.887Z,22.58
2017-11-18T18:47:51.672Z,30.45
2017-11-18T18:50:19.620Z,29.98
2017-11-18T18:52:47.420Z,25.12
2017-11-18T18:55:16.137Z,32.42
2017-11-18T18:57:43.964Z,23.75
2017-11-18T19:00:12.513Z,28.92
2017-11-18T19:02:40.287Z,26.80
2017-11-18T19:05:08.481Z,27.02
2017-11-18T19:07:37.010Z,26.98
2017-11-18T19:10:04.877Z,33.33
2017-11-18T19:12:32.828Z,27.83
2017-11-18T19:15:00.758Z,36.88
2017-11-18T19:17:29.423Z,31.90
2017-11-18T19:19:57.292Z,30.90
2017-11-18T19:22:25.246Z,44.30
2017-11-18T19:24:53.087Z,40.10
2017-11-18T19:27:21.242Z,25.95
2017-11-18T19:29:49.057Z,35.17
2017-11-18T19:32:17.835Z,27.85
2017-11-18T19:34:45.711Z,30.20
2017-11-18T19:37:14.292Z,31.08
2017-11-18T19:39:42.852Z,25.15
2017-11-18T19:42:11.166Z,24.37
2017-11-18T19:44:39.468Z,21.73
2017-11-18T19:47:07.294Z,28.02
2017-11-18T19:49:36.701Z,18.48
2017-11-18T19:52:05.353Z,22.10
2017-11-18T19:54:33.269Z,17.45
2017-11-18T19:57:01.113Z,26.05
2017-11-18T19:59:29.654Z,24.02
2017-11-18T20:01:57.518Z,26.65
2017-11-18T20:04:25.389Z,28.52
2017-11-18T20:06:53.621Z,32.65
2017-11-18T20:09:21.689Z,31.33
2017-11-18T20:11:49.535Z,28.90
2017-11-18T20:14:17.309Z,42.40
2017-11-18T20:16:45.078Z,24.52
2017-11-18T20:19:12.893Z,26.27
2017-11-18T20:21:41.441Z,18.20
2017-11-18T20:24:09.222Z,18.65
2017-11-18T20:26:37.051Z,16.67
2017-11-18T20:29:04.820Z,18.33
2017-11-18T20:31:32.600Z,16.75
2017-11-18T20:34:00.426Z,19.23
2017-11-18T20:36:28.180Z,11.43
2017-11-18T20:38:55.961Z,16.70
2017-11-18T20:41:23.784Z,18.67
2017-11-18T20:43:52.332Z,14.85
2017-11-18T20:46:20.093Z,15.52
2017-11-18T20:48:47.910Z,14.32
2017-11-18T20:51:15.673Z,14.48
2017-11-18T20:53:43.449Z,15.32
2017-11-18T20:56:11.270Z,17.52
2017-11-18T20:58:39.806Z,17.65
2017-11-18T21:01:07.617Z,18.65
2017-11-18T21:03:36.221Z,17.42
2017-11-18T21:06:05.789Z,18.85
2017-11-18T21:08:34.348Z,15.38
2017-11-18T21:11:02.198Z,16.10
2017-11-18T21:13:29.986Z,14.60
2017-11-18T21:15:57.776Z,18.50
2017-11-18T21:18:26.384Z,11.05
2017-11-18T21:20:54.148Z,11.10
2017-11-18T21:23:21.908Z,13.75
2017-11-18T21:25:49.724Z,12.93
2017-11-18T21:28:17.492Z,12.88
2017-11-18T21:30:46.083Z,14.00
2017-11-18T21:33:14.681Z,22.62
2017-11-18T21:35:42.432Z,13.07
2017-11-18T21:38:10.953Z,12.68
2017-11-18T21:40:38.818Z,12.70
2017-11-18T21:43:06.580Z,15.73
2017-11-18T21:45:34.358Z,12.95
2017-11-18T21:48:02.187Z,15.43
2017-11-18T21:50:29.957Z,12.13
2017-11-18T21:52:57.722Z,21.73
2017-11-18T21:55:25.560Z,21.02
2017-11-18T21:57:53.336Z,12.48
2017-11-18T22:00:21.145Z,10.93
2017-11-18T22:02:48.987Z,15.85
2017-11-18T22:05:16.748Z,17.67
2017-11-18T22:07:44.575Z,13.82
2017-11-18T22:10:12.401Z,12.15
2017-11-18T22:12:40.177Z,11.75
2017-11-18T22:15:08.702Z,11.35
2017-11-18T22:17:36.521Z,12.98
2017-11-18T22:20:05.061Z,11.82
2017-11-18T22:22:32.833Z,28.58
2017-11-18T22:25:00.677Z,16.75
2017-11-18T22:27:28.490Z,18.70
2017-11-18T22:29:57.111Z,32.55
2017-11-18T22:32:24.961Z,13.82
2017-11-18T22:34:52.725Z,15.70
2017-11-18T22:37:20.530Z,17.00
2017-11-18T22:39:48.348Z,12.18
2017-11-18T22:42:16.141Z,15.25
2017-11-18T22:44:43.899Z,12.23
2017-11-18T22:47:11.713Z,10.93
2017-11-18T22:49:40.243Z,21.33
2017-11-18T22:52:08.020Z,20.48
2017-11-18T22:54:35.831Z,22.25
2017-11-18T22:57:03.594Z,16.98
2017-11-18T22:59:31.357Z,13.10
2017-11-18T23:01:59.169Z,14.75
2017-11-18T23:04:26.946Z,10.32
2017-11-18T23:06:54.702Z,13.20
2017-11-18T23:09:22.526Z,14.02
2017-11-18T23:11:50.285Z,12.93
2017-11-18T23:14:18.036Z,12.10
2017-11-18T23:16:45.856Z,11.75
2017-11-18T23:19:13.609Z,13.13
2017-11-18T23:21:41.357Z,11.32
2017-11-18T23:24:09.165Z,9.70
2017-11-18T23:26:36.922Z,10.90
2017-11-18T23:29:05.449Z,10.30
2017-11-18T23:31:33.257Z,9.40
2017-11-18T23:34:01.781Z,11.05
2017-11-18T23:36:29.532Z,8.82
2017-11-18T23:38:57.372Z,11.15
2017-11-18T23:41:25.896Z,12.05
2017-11-18T23:43:53.663Z,10.98
2017-11-18T23:46:21.649Z,12.85
2017-11-18T23:48:49.392Z,12.52
2017-11-18T23:51:17.158Z,11.02
2017-11-18T23:53:44.984Z,10.10
2017-11-18T23:56:12.748Z,12.45
2017-11-18T23:58:40.523Z,12.80
